createdAt,value
2019-05-10T00:00:05.259Z,11.60
2019-05-10T00:02:53.475Z,9.83
2019-05-10T00:05:41.601Z,8.90
2019-05-10T00:08:27.529Z,7.83
2019-05-10T00:11:04.019Z,7.17
2019-05-10T00:13:33.976Z,6.67
2019-05-10T00:16:02.389Z,6.58
2019-05-10T00:18:29.388Z,6.92
2019-05-10T00:20:58.929Z,7.20
2019-05-10T00:23:25.835Z,6.90
2019-05-10T00:25:53.108Z,7.22
2019-05-10T00:28:20.277Z,6.92
2019-05-10T00:30:47.586Z,5.95
2019-05-10T00:33:15.234Z,6.50
2019-05-10T00:35:42.460Z,6.42
2019-05-10T00:38:09.659Z,5.75
2019-05-10T00:40:36.871Z,5.80
2019-05-10T00:43:04.210Z,6.25
2019-05-10T00:45:31.351Z,6.20
2019-05-10T00:47:59.609Z,6.47
2019-05-10T00:50:26.602Z,6.00
2019-05-10T00:52:53.673Z,6.30
2019-05-10T00:55:23.037Z,6.40
2019-05-10T00:57:50.574Z,7.42
2019-05-10T01:00:18.571Z,7.50
2019-05-10T01:02:46.235Z,8.13
2019-05-10T01:05:13.431Z,8.98
2019-05-10T01:07:40.485Z,9.55
2019-05-10T01:10:08.790Z,9.95
2019-05-10T01:12:36.226Z,10.48
2019-05-10T01:15:07.555Z,10.98
2019-05-10T01:17:34.646Z,11.03
2019-05-10T01:20:05.085Z,10.45
2019-05-10T01:22:33.476Z,10.48
2019-05-10T01:25:03.259Z,10.93
2019-05-10T01:27:30.534Z,10.55
2019-05-10T01:29:57.776Z,9.70
2019-05-10T01:32:25.367Z,9.58
2019-05-10T01:34:52.411Z,9.60
2019-05-10T01:37:19.685Z,8.60
2019-05-10T01:39:47.124Z,8.90
2019-05-10T01:42:14.327Z,8.63
2019-05-10T01:44:41.566Z,8.68
2019-05-10T01:47:09.238Z,9.13
2019-05-10T01:49:37.635Z,8.43
2019-05-10T01:52:04.734Z,7.85
2019-05-10T01:54:33.063Z,8.20
2019-05-10T01:57:00.230Z,8.80
2019-05-10T01:59:28.324Z,8.18
2019-05-10T02:01:55.455Z,8.50
2019-05-10T02:04:22.917Z,8.68
2019-05-10T02:06:50.096Z,8.13
2019-05-10T02:09:17.374Z,8.08
2019-05-10T02:11:44.520Z,7.58
2019-05-10T02:14:12.119Z,7.30
2019-05-10T02:16:39.443Z,7.30
2019-05-10T02:19:06.629Z,6.75
2019-05-10T02:21:33.963Z,7.80
2019-05-10T02:24:01.363Z,7.37
2019-05-10T02:26:29.921Z,7.83
2019-05-10T02:28:57.042Z,7.70
2019-05-10T02:31:24.265Z,7.87
2019-05-10T02:33:51.352Z,8.13
2019-05-10T02:36:18.764Z,7.80
2019-05-10T02:38:46.707Z,7.30
2019-05-10T02:41:13.735Z,7.58
2019-05-10T02:43:41.721Z,8.35
2019-05-10T02:46:08.912Z,7.83
2019-05-10T02:48:36.734Z,9.20
2019-05-10T02:51:03.732Z,8.43
2019-05-10T02:53:32.209Z,8.88
2019-05-10T02:55:59.741Z,8.05
2019-05-10T02:58:26.895Z,8.23
2019-05-10T03:00:58.514Z,8.68
2019-05-10T03:03:34.496Z,7.70
2019-05-10T03:06:01.751Z,8.45
2019-05-10T03:08:37.944Z,8.38
2019-05-10T03:13:32.308Z,8.13
2019-05-10T03:16:02.233Z,8.90
2019-05-10T03:18:31.660Z,8.80
2019-05-10T03:20:59.865Z,8.53
2019-05-10T03:23:27.920Z,8.55
2019-05-10T03:25:56.085Z,8.70
2019-05-10T03:28:23.092Z,9.68
2019-05-10T03:30:50.441Z,10.03
2019-05-10T03:33:18.166Z,12.93
2019-05-10T03:35:47.725Z,13.50
2019-05-10T03:38:14.708Z,11.70
2019-05-10T03:40:42.274Z,9.33
2019-05-10T03:43:09.368Z,9.35
2019-05-10T03:45:36.880Z,9.63
2019-05-10T03:48:04.393Z,8.95
2019-05-10T03:50:31.527Z,10.03
2019-05-10T03:52:58.659Z,10.13
2019-05-10T03:55:25.911Z,9.53
2019-05-10T03:57:53.210Z,10.20
2019-05-10T04:00:23.078Z,10.03
2019-05-10T04:02:50.475Z,10.10
2019-05-10T04:05:17.653Z,9.90
2019-05-10T04:07:44.703Z,10.13
2019-05-10T04:10:13.225Z,10.18
2019-05-10T04:12:40.256Z,10.85
2019-05-10T04:15:08.687Z,12.00
2019-05-10T04:17:36.893Z,10.70
2019-05-10T04:20:06.246Z,11.22
2019-05-10T04:22:33.040Z,11.83
2019-05-10T04:25:01.413Z,11.80
2019-05-10T04:27:32.457Z,11.33
2019-05-10T04:29:57.789Z,11.15
2019-05-10T04:32:24.789Z,10.72
2019-05-10T04:34:53.269Z,16.82
2019-05-10T04:37:20.235Z,18.02
2019-05-10T04:39:47.967Z,15.58
2019-05-10T04:42:15.284Z,14.05
2019-05-10T04:44:42.540Z,13.68
2019-05-10T04:47:10.037Z,13.60
2019-05-10T04:49:37.212Z,12.68
2019-05-10T04:52:04.284Z,12.95
2019-05-10T04:54:31.595Z,11.85
2019-05-10T04:57:00.194Z,11.45
2019-05-10T04:59:27.425Z,11.85
2019-05-10T05:01:54.966Z,11.85
2019-05-10T05:04:22.995Z,12.10
2019-05-10T05:06:50.020Z,11.63
2019-05-10T05:09:17.024Z,9.03
2019-05-10T05:11:44.048Z,9.38
2019-05-10T05:14:12.704Z,8.33
2019-05-10T05:16:40.823Z,8.30
2019-05-10T05:19:07.992Z,8.38
2019-05-10T05:21:35.171Z,7.95
2019-05-10T05:24:03.126Z,8.35
2019-05-10T05:26:32.893Z,8.58
2019-05-10T05:28:59.911Z,9.30
2019-05-10T05:31:28.577Z,9.93
2019-05-10T05:33:59.205Z,10.55
2019-05-10T05:36:24.544Z,10.68
2019-05-10T05:38:52.113Z,11.88
2019-05-10T05:41:19.607Z,9.83
2019-05-10T05:43:48.207Z,8.48
2019-05-10T05:46:15.505Z,8.98
2019-05-10T05:48:42.818Z,8.45
2019-05-10T05:51:10.169Z,7.53
2019-05-10T05:53:42.347Z,7.15
2019-05-10T05:56:12.677Z,6.78
2019-05-10T05:58:38.252Z,7.00
2019-05-10T06:01:04.442Z,7.20
2019-05-10T06:03:33.833Z,6.90
2019-05-10T06:06:00.840Z,6.78
2019-05-10T06:08:30.068Z,6.55
2019-05-10T06:10:59.580Z,6.42
2019-05-10T06:13:30.218Z,5.70
2019-05-10T06:16:00.055Z,6.42
2019-05-10T06:18:26.644Z,6.30
2019-05-10T06:20:53.656Z,6.20
2019-05-10T06:23:21.076Z,6.20
2019-05-10T06:25:47.981Z,6.17
2019-05-10T06:28:26.253Z,5.67
2019-05-10T06:30:44.993Z,5.72
2019-05-10T06:33:13.337Z,5.58
2019-05-10T06:35:41.183Z,5.65
2019-05-10T06:38:08.129Z,5.58
2019-05-10T06:40:44.320Z,5.55
2019-05-10T06:43:07.030Z,5.30
2019-05-10T06:45:33.400Z,5.60
2019-05-10T06:48:00.651Z,5.35
2019-05-10T06:50:29.979Z,6.00
2019-05-10T06:53:00.793Z,5.33
2019-05-10T06:55:28.035Z,6.08
2019-05-10T06:57:59.307Z,5.75
2019-05-10T07:00:23.763Z,5.80
2019-05-10T07:02:51.081Z,5.90
2019-05-10T07:05:19.017Z,6.00
2019-05-10T07:07:46.928Z,6.20
2019-05-10T07:10:19.050Z,6.03
2019-05-10T07:12:45.264Z,5.17
2019-05-10T07:15:13.015Z,5.28
2019-05-10T07:17:45.417Z,4.53
2019-05-10T07:20:09.599Z,4.92
2019-05-10T07:22:36.719Z,5.08
2019-05-10T07:25:07.567Z,5.85
2019-05-10T07:27:36.552Z,5.95
2019-05-10T07:30:05.475Z,7.08
2019-05-10T07:32:32.480Z,6.87
2019-05-10T07:35:00.997Z,6.42
2019-05-10T07:37:28.433Z,7.22
2019-05-10T07:39:55.537Z,7.25
2019-05-10T07:42:22.483Z,7.17
2019-05-10T07:44:49.688Z,7.00
2019-05-10T07:47:23.997Z,7.55
2019-05-10T07:49:47.985Z,7.80
2019-05-10T07:52:15.311Z,7.25
2019-05-10T07:54:45.042Z,7.55
2019-05-10T07:57:11.440Z,7.72
2019-05-10T07:59:49.918Z,7.15
2019-05-10T08:02:13.042Z,7.78
2019-05-10T08:04:38.457Z,7.05
2019-05-10T08:07:09.818Z,7.72
2019-05-10T08:09:37.147Z,7.58
2019-05-10T08:12:05.300Z,7.30
2019-05-10T08:14:32.535Z,7.62
2019-05-10T08:17:05.867Z,7.37
2019-05-10T08:19:32.901Z,6.92
2019-05-10T08:22:01.822Z,7.15
2019-05-10T08:24:26.449Z,6.85
2019-05-10T08:26:55.492Z,7.60
2019-05-10T08:29:22.671Z,6.75
2019-05-10T08:31:55.247Z,6.50
2019-05-10T08:34:19.790Z,7.20
2019-05-10T08:36:47.850Z,6.95
2019-05-10T08:39:15.008Z,7.35
2019-05-10T08:41:42.886Z,7.47
2019-05-10T08:44:19.103Z,7.30
2019-05-10T08:46:41.387Z,8.00
2019-05-10T08:49:09.399Z,7.30
2019-05-10T08:51:43.958Z,6.55
2019-05-10T08:54:06.132Z,7.00
2019-05-10T08:56:33.437Z,7.30
2019-05-10T08:59:03.688Z,7.85
2019-05-10T09:01:31.365Z,7.12
2019-05-10T09:04:01.973Z,7.90
2019-05-10T09:06:28.190Z,6.55
2019-05-10T09:09:01.550Z,6.90
2019-05-10T09:11:23.926Z,6.22
2019-05-10T09:13:53.175Z,6.55
2019-05-10T09:16:19.768Z,6.80
2019-05-10T09:18:50.621Z,7.28
2019-05-10T09:21:16.139Z,6.87
2019-05-10T09:23:43.542Z,6.90
2019-05-10T09:26:16.259Z,7.75
2019-05-10T09:28:41.945Z,7.65
2019-05-10T09:31:18.601Z,7.92
2019-05-10T09:33:41.022Z,6.40
2019-05-10T09:36:07.146Z,6.33
2019-05-10T09:38:39.052Z,7.28
2019-05-10T09:41:03.622Z,7.35
2019-05-10T09:43:31.986Z,4.67
2019-05-10T09:46:02.514Z,5.30
2019-05-10T09:48:29.449Z,5.85
2019-05-10T09:51:00.806Z,4.80
2019-05-10T09:53:27.473Z,5.55
2019-05-10T09:56:00.196Z,5.55
2019-05-10T09:58:23.408Z,5.15
2019-05-10T10:00:50.646Z,5.80
2019-05-10T10:03:17.952Z,5.15
2019-05-10T10:05:48.031Z,4.78
2019-05-10T10:08:14.155Z,5.10
2019-05-10T10:10:42.635Z,4.58
2019-05-10T10:13:13.687Z,3.95
2019-05-10T10:15:38.817Z,4.62
2019-05-10T10:18:05.987Z,4.45
2019-05-10T10:20:42.969Z,4.60
2019-05-10T10:23:06.988Z,4.28
2019-05-10T10:25:35.082Z,4.83
2019-05-10T10:28:07.587Z,4.45
2019-05-10T10:30:31.740Z,4.65
2019-05-10T10:32:59.006Z,4.17
2019-05-10T10:35:27.703Z,3.85
2019-05-10T10:37:57.613Z,4.03
2019-05-10T10:40:24.227Z,4.90
2019-05-10T10:42:51.536Z,4.30
2019-05-10T10:45:18.667Z,4.10
2019-05-10T10:47:47.265Z,4.35
2019-05-10T10:50:17.072Z,4.95
2019-05-10T10:52:43.577Z,4.35
2019-05-10T10:55:11.913Z,4.80
2019-05-10T10:57:39.853Z,4.33
2019-05-10T11:00:09.766Z,4.72
2019-05-10T11:02:36.874Z,4.37
2019-05-10T11:05:05.944Z,4.22
2019-05-10T11:07:35.765Z,4.15
2019-05-10T11:10:15.377Z,3.83
2019-05-10T11:12:34.016Z,3.50
2019-05-10T11:15:01.302Z,3.70
2019-05-10T11:17:30.672Z,3.67
2019-05-10T11:19:57.261Z,3.58
2019-05-10T11:22:27.238Z,3.27
2019-05-10T11:25:01.302Z,3.40
2019-05-10T11:27:22.399Z,2.90
2019-05-10T11:29:52.894Z,3.30
2019-05-10T11:32:18.152Z,2.85
2019-05-10T11:34:45.195Z,3.15
2019-05-10T11:37:14.771Z,2.65
2019-05-10T11:39:46.702Z,2.90
2019-05-10T11:42:11.883Z,2.72
2019-05-10T11:44:41.514Z,2.65
2019-05-10T11:47:20.954Z,2.60
2019-05-10T11:49:40.494Z,2.50
2019-05-10T11:52:10.014Z,3.47
2019-05-10T11:54:36.694Z,3.20
2019-05-10T11:57:09.674Z,3.52
2019-05-10T11:59:38.425Z,3.30
2019-05-10T12:02:02.869Z,3.77
2019-05-10T12:04:38.977Z,3.90
2019-05-10T12:07:02.782Z,4.55
2019-05-10T12:09:31.631Z,4.20
2019-05-10T12:12:03.015Z,3.62
2019-05-10T12:14:27.739Z,3.70
2019-05-10T12:16:54.952Z,4.10
2019-05-10T12:19:22.359Z,3.50
2019-05-10T12:21:52.554Z,3.90
2019-05-10T12:24:33.637Z,3.90
2019-05-10T12:27:13.206Z,4.20
2019-05-10T12:29:17.402Z,4.20
2019-05-10T12:31:50.942Z,2.92
2019-05-10T12:34:14.571Z,2.10
2019-05-10T12:36:43.521Z,1.98
2019-05-10T12:39:11.759Z,2.22
2019-05-10T12:41:45.089Z,2.25
2019-05-10T12:44:07.879Z,2.58
2019-05-10T12:46:34.676Z,2.08
2019-05-10T12:49:04.818Z,2.30
2019-05-10T12:51:31.351Z,2.17
2019-05-10T12:53:58.749Z,2.75
2019-05-10T12:56:26.655Z,2.30
2019-05-10T12:58:57.667Z,2.30
2019-05-10T13:01:25.543Z,2.17
2019-05-10T13:03:52.238Z,3.20
2019-05-10T13:06:19.801Z,2.30
2019-05-10T13:08:47.121Z,1.98
2019-05-10T13:11:19.171Z,1.67
2019-05-10T13:13:43.268Z,1.80
2019-05-10T13:16:11.969Z,1.57
2019-05-10T13:18:50.467Z,2.30
2019-05-10T13:21:20.031Z,1.65
2019-05-10T13:23:37.799Z,2.00
2019-05-10T13:26:05.031Z,1.87
2019-05-10T13:28:32.148Z,1.60
2019-05-10T13:30:59.741Z,1.82
2019-05-10T13:33:29.487Z,2.10
2019-05-10T13:35:58.700Z,2.40
2019-05-10T13:38:26.730Z,2.62
2019-05-10T13:40:53.899Z,2.85
2019-05-10T13:43:26.654Z,2.80
2019-05-10T13:45:50.343Z,2.87
2019-05-10T13:48:17.380Z,2.70
2019-05-10T13:50:44.366Z,2.72
2019-05-10T13:53:19.691Z,2.98
2019-05-10T13:55:42.594Z,2.15
2019-05-10T13:58:10.014Z,2.60
2019-05-10T14:00:37.080Z,2.05
2019-05-10T14:03:05.020Z,2.10
2019-05-10T14:05:33.190Z,1.70
2019-05-10T14:08:00.625Z,1.70
2019-05-10T14:10:27.540Z,1.82
2019-05-10T14:13:01.937Z,1.60
2019-05-10T14:15:23.883Z,1.98
2019-05-10T14:17:50.965Z,1.55
2019-05-10T14:20:24.815Z,2.40
2019-05-10T14:22:55.440Z,4.28
2019-05-10T14:25:17.557Z,4.20
2019-05-10T14:27:44.730Z,4.45
2019-05-10T14:30:15.843Z,3.15
2019-05-10T14:32:41.169Z,4.17
2019-05-10T14:35:08.985Z,4.10
2019-05-10T14:37:35.882Z,3.25
2019-05-10T14:40:05.906Z,4.20
2019-05-10T14:42:33.684Z,4.50
2019-05-10T14:45:00.866Z,6.12
2019-05-10T14:47:27.969Z,5.22
2019-05-10T14:49:55.427Z,6.25
2019-05-10T14:52:22.886Z,14.30
2019-05-10T14:54:55.434Z,8.95
2019-05-10T14:57:18.991Z,9.08
2019-05-10T14:59:46.215Z,10.85
2019-05-10T15:02:17.014Z,4.10
2019-05-10T15:04:46.263Z,2.80
2019-05-10T15:07:14.367Z,3.42
2019-05-10T15:09:41.971Z,4.80
2019-05-10T15:12:10.173Z,4.08
2019-05-10T15:14:38.306Z,3.75
2019-05-10T15:17:05.478Z,4.75
2019-05-10T15:19:32.742Z,4.55
2019-05-10T15:21:59.752Z,5.55
2019-05-10T15:24:26.903Z,3.90
2019-05-10T15:26:53.939Z,3.37
2019-05-10T15:29:22.384Z,3.17
2019-05-10T15:31:49.908Z,3.72
2019-05-10T15:34:17.255Z,7.55
2019-05-10T15:36:44.343Z,7.78
2019-05-10T15:39:11.762Z,7.28
2019-05-10T15:41:38.899Z,7.42
2019-05-10T15:44:06.015Z,6.90
2019-05-10T15:46:38.778Z,7.08
2019-05-10T15:49:02.652Z,7.28
2019-05-10T15:51:36.167Z,7.72
2019-05-10T15:54:04.985Z,7.33
2019-05-10T15:56:27.735Z,7.40
2019-05-10T15:58:55.076Z,6.95
2019-05-10T16:01:27.005Z,6.58
2019-05-10T16:03:51.671Z,6.17
2019-05-10T16:06:19.312Z,6.60
2019-05-10T16:08:46.488Z,6.75
2019-05-10T16:11:18.737Z,6.08
2019-05-10T16:13:42.391Z,7.45
2019-05-10T16:16:09.223Z,8.13
2019-05-10T16:18:40.113Z,7.75
2019-05-10T16:21:09.723Z,14.75
2019-05-10T16:23:35.314Z,10.40
2019-05-10T16:26:02.384Z,6.75
2019-05-10T16:28:29.634Z,7.30
2019-05-10T16:30:57.063Z,7.45
2019-05-10T16:33:24.274Z,6.92
2019-05-10T16:35:52.073Z,6.75
2019-05-10T16:38:19.319Z,8.68
2019-05-10T16:40:57.126Z,8.88
2019-05-10T16:43:22.207Z,9.13
2019-05-10T16:45:44.860Z,8.88
2019-05-10T16:48:12.243Z,9.75
2019-05-10T16:50:39.931Z,9.88
2019-05-10T16:53:08.218Z,8.75
2019-05-10T16:55:40.375Z,9.40
2019-05-10T16:58:09.120Z,9.10
2019-05-10T17:00:33.714Z,8.90
2019-05-10T17:03:00.755Z,9.00
2019-05-10T17:05:27.874Z,9.95
2019-05-10T17:07:58.784Z,10.08
2019-05-10T17:10:27.019Z,10.08
2019-05-10T17:12:53.134Z,10.65
2019-05-10T17:15:20.245Z,11.03
2019-05-10T17:17:47.570Z,10.38
2019-05-10T17:20:15.969Z,10.72
2019-05-10T17:22:44.361Z,18.05
2019-05-10T17:25:11.783Z,25.12
2019-05-10T17:27:39.014Z,17.12
2019-05-10T17:30:06.666Z,17.00
2019-05-10T17:32:33.955Z,22.70
2019-05-10T17:35:04.563Z,22.15
2019-05-10T17:37:35.791Z,14.50
2019-05-10T17:39:59.633Z,24.57
2019-05-10T17:42:26.773Z,25.90
2019-05-10T17:44:55.417Z,33.20
2019-05-10T17:47:27.041Z,32.95
2019-05-10T17:49:52.294Z,33.23
2019-05-10T17:52:19.441Z,33.20
2019-05-10T17:54:46.765Z,33.23
2019-05-10T17:57:16.567Z,36.17
2019-05-10T17:59:47.082Z,27.20
2019-05-10T18:02:12.203Z,26.97
2019-05-10T18:04:39.199Z,26.77
2019-05-10T18:07:06.928Z,28.75
2019-05-10T18:09:34.670Z,30.10
2019-05-10T18:12:01.554Z,32.42
2019-05-10T18:14:29.634Z,34.43
2019-05-10T18:16:56.827Z,19.00
2019-05-10T18:19:26.397Z,19.20
2019-05-10T18:21:55.009Z,20.45
2019-05-10T18:24:30.091Z,17.45
2019-05-10T18:26:56.847Z,11.20
2019-05-10T18:29:24.216Z,11.88
2019-05-10T18:31:56.333Z,16.07
2019-05-10T18:34:20.361Z,18.77
2019-05-10T18:36:51.861Z,17.80
2019-05-10T18:39:17.784Z,17.40
2019-05-10T18:41:46.674Z,16.77
2019-05-10T18:44:15.834Z,19.75
2019-05-10T18:46:42.828Z,20.05
2019-05-10T18:49:09.851Z,21.07
2019-05-10T18:51:37.498Z,20.92
2019-05-10T18:54:04.847Z,22.05
2019-05-10T18:56:33.175Z,22.67
2019-05-10T18:59:06.547Z,23.30
2019-05-10T19:01:32.865Z,22.95
2019-05-10T19:03:58.717Z,22.07
2019-05-10T19:06:26.144Z,22.00
2019-05-10T19:08:53.504Z,24.77
2019-05-10T19:11:20.605Z,26.57
2019-05-10T19:13:53.376Z,27.37
2019-05-10T19:16:16.726Z,53.78
2019-05-10T19:18:43.652Z,51.88
2019-05-10T19:21:10.992Z,44.45
2019-05-10T19:23:38.056Z,46.40
2019-05-10T19:26:05.272Z,40.30
2019-05-10T19:28:32.685Z,48.40
2019-05-10T19:31:00.492Z,45.75
2019-05-10T19:33:29.725Z,47.25
2019-05-10T19:35:56.528Z,45.48
2019-05-10T19:38:24.033Z,41.05
2019-05-10T19:40:50.980Z,36.73
2019-05-10T19:43:21.897Z,31.45
2019-05-10T19:45:51.089Z,23.67
2019-05-10T19:48:16.384Z,24.37
2019-05-10T19:50:43.858Z,27.25
2019-05-10T19:53:10.895Z,27.37
2019-05-10T19:55:38.050Z,27.40
2019-05-10T19:58:05.130Z,25.55
2019-05-10T20:00:32.364Z,19.67
2019-05-10T20:02:59.716Z,16.73
2019-05-10T20:05:26.689Z,15.90
2019-05-10T20:07:53.591Z,17.20
2019-05-10T20:10:21.450Z,17.32
2019-05-10T20:12:48.556Z,18.55
2019-05-10T20:15:15.908Z,19.30
2019-05-10T20:17:43.229Z,21.95
2019-05-10T20:20:11.003Z,22.67
2019-05-10T20:22:37.936Z,22.35
2019-05-10T20:25:06.776Z,18.05
2019-05-10T20:27:33.960Z,12.75
2019-05-10T20:30:01.306Z,11.43
2019-05-10T20:32:28.973Z,11.53
2019-05-10T20:34:55.963Z,12.13
2019-05-10T20:37:22.939Z,13.70
2019-05-10T20:39:50.251Z,18.75
2019-05-10T20:42:17.593Z,21.07
2019-05-10T20:44:44.811Z,18.32
2019-05-10T20:47:11.905Z,15.48
2019-05-10T20:49:39.035Z,15.00
2019-05-10T20:52:06.714Z,16.25
2019-05-10T20:54:34.188Z,17.45
2019-05-10T20:57:01.174Z,18.05
2019-05-10T20:59:28.254Z,17.00
2019-05-10T21:01:55.294Z,17.40
2019-05-10T21:04:22.309Z,16.70
2019-05-10T21:06:49.646Z,15.10
2019-05-10T21:09:16.795Z,14.30
2019-05-10T21:11:43.964Z,12.28
2019-05-10T21:14:11.029Z,12.60
2019-05-10T21:16:37.942Z,12.03
2019-05-10T21:19:05.130Z,11.15
2019-05-10T21:21:32.134Z,11.38
2019-05-10T21:23:59.195Z,12.25
2019-05-10T21:26:26.247Z,12.75
2019-05-10T21:28:53.334Z,13.03
2019-05-10T21:31:20.354Z,13.18
2019-05-10T21:33:47.479Z,13.62
2019-05-10T21:36:14.508Z,13.35
2019-05-10T21:38:41.987Z,12.10
2019-05-10T21:41:09.580Z,12.07
2019-05-10T21:43:36.801Z,13.70
2019-05-10T21:46:03.777Z,12.35
2019-05-10T21:48:31.162Z,12.07
2019-05-10T21:50:58.114Z,14.03
2019-05-10T21:53:26.342Z,14.98
2019-05-10T21:55:53.662Z,14.90
2019-05-10T21:58:20.755Z,15.10
2019-05-10T22:00:50.586Z,14.10
2019-05-10T22:03:18.290Z,14.68
2019-05-10T22:05:45.650Z,14.98
2019-05-10T22:08:13.117Z,15.30
2019-05-10T22:10:40.382Z,16.70
2019-05-10T22:13:07.724Z,18.40
2019-05-10T22:15:34.866Z,18.48
2019-05-10T22:18:01.995Z,19.52
2019-05-10T22:20:29.385Z,19.25
2019-05-10T22:22:56.432Z,21.77
2019-05-10T22:25:23.277Z,22.27
2019-05-10T22:27:50.473Z,18.82
2019-05-10T22:30:18.219Z,18.70
2019-05-10T22:32:45.252Z,17.67
2019-05-10T22:35:12.204Z,17.67
2019-05-10T22:37:39.668Z,18.02
2019-05-10T22:40:07.550Z,17.60
2019-05-10T22:42:35.410Z,17.07
2019-05-10T22:45:04.713Z,17.25
2019-05-10T22:47:32.788Z,15.55
2019-05-10T22:49:59.837Z,15.65
2019-05-10T22:52:27.316Z,16.30
2019-05-10T22:54:54.458Z,16.23
2019-05-10T22:57:21.732Z,16.15
2019-05-10T22:59:48.754Z,18.27
2019-05-10T23:02:16.010Z,12.78
2019-05-10T23:04:43.074Z,14.15
2019-05-10T23:07:10.284Z,13.03
2019-05-10T23:09:37.363Z,12.78
2019-05-10T23:12:04.518Z,14.25
2019-05-10T23:14:31.771Z,15.23
2019-05-10T23:16:59.025Z,17.15
2019-05-10T23:19:26.502Z,17.10
2019-05-10T23:21:53.747Z,19.92
2019-05-10T23:24:23.001Z,20.57
2019-05-10T23:26:50.196Z,22.27
2019-05-10T23:29:17.656Z,21.82
2019-05-10T23:31:44.607Z,21.57
2019-05-10T23:34:11.758Z,20.00
2019-05-10T23:36:39.118Z,19.52
2019-05-10T23:39:06.998Z,19.15
2019-05-10T23:41:34.193Z,19.57
2019-05-10T23:44:01.302Z,19.95
2019-05-10T23:46:28.449Z,19.52
2019-05-10T23:48:55.605Z,20.25
2019-05-10T23:51:23.061Z,19.73
2019-05-10T23:53:50.226Z,20.85
2019-05-10T23:56:17.470Z,19.35
2019-05-10T23:58:44.747Z,18.15
